createdAt,value
2019-03-08T00:00:06.803Z,100.00
2019-03-08T00:02:55.101Z,100.00
2019-03-08T00:05:43.570Z,99.97
2019-03-08T00:08:31.421Z,98.87
2019-03-08T00:11:20.296Z,98.24
2019-03-08T00:14:08.388Z,97.20
2019-03-08T00:16:56.459Z,96.63
2019-03-08T00:19:44.448Z,95.21
2019-03-08T00:22:32.565Z,96.28
2019-03-08T00:25:20.121Z,98.10
2019-03-08T00:28:07.902Z,98.75
2019-03-08T00:30:56.411Z,98.41
2019-03-08T00:33:44.659Z,99.69
2019-03-08T00:36:32.901Z,99.25
2019-03-08T00:39:21.271Z,99.03
2019-03-08T00:42:09.126Z,99.42
2019-03-08T00:44:57.804Z,100.00
2019-03-08T00:47:45.862Z,100.00
2019-03-08T00:50:33.575Z,100.00
2019-03-08T00:56:20.728Z,100.00
2019-03-08T00:59:08.870Z,100.00
2019-03-08T01:01:57.051Z,100.00
2019-03-08T01:04:44.908Z,100.00
2019-03-08T01:07:33.251Z,100.00
2019-03-08T01:10:22.170Z,100.00
2019-03-08T01:13:10.297Z,100.00
2019-03-08T01:15:59.899Z,100.00
2019-03-08T01:18:48.208Z,100.00
2019-03-08T01:21:36.047Z,100.00
2019-03-08T01:24:31.162Z,100.00
2019-03-08T01:27:20.890Z,100.00
2019-03-08T01:30:10.006Z,100.00
2019-03-08T01:32:58.451Z,100.00
2019-03-08T01:35:46.635Z,100.00
2019-03-08T01:38:35.077Z,100.00
2019-03-08T01:41:22.767Z,100.00
2019-03-08T01:44:11.506Z,100.00
2019-03-08T01:46:59.252Z,100.00
2019-03-08T01:49:47.172Z,100.00
2019-03-08T01:52:39.686Z,100.00
2019-03-08T01:55:28.252Z,100.00
2019-03-08T01:58:16.761Z,100.00
2019-03-08T02:01:05.493Z,100.00
2019-03-08T02:03:53.449Z,100.00
2019-03-08T02:06:41.347Z,100.00
2019-03-08T02:09:29.016Z,100.00
2019-03-08T02:12:22.312Z,100.00
2019-03-08T02:15:11.432Z,100.00
2019-03-08T02:17:59.803Z,100.00
2019-03-08T02:20:48.154Z,100.00
2019-03-08T02:23:36.671Z,100.00
2019-03-08T02:26:24.942Z,100.00
2019-03-08T02:29:13.396Z,100.00
2019-03-08T02:32:01.411Z,100.00
2019-03-08T02:34:49.983Z,100.00
2019-03-08T02:37:37.839Z,100.00
2019-03-08T02:40:29.993Z,100.00
2019-03-08T02:43:18.614Z,100.00
2019-03-08T02:46:06.775Z,100.00
2019-03-08T02:48:54.816Z,100.00
2019-03-08T02:51:43.337Z,100.00
2019-03-08T02:54:31.692Z,100.00
2019-03-08T02:57:19.972Z,100.00
2019-03-08T03:00:09.279Z,100.00
2019-03-08T03:02:57.236Z,100.00
2019-03-08T03:05:45.755Z,100.00
2019-03-08T03:08:34.140Z,100.00
2019-03-08T03:11:22.583Z,100.00
2019-03-08T03:14:10.990Z,100.00
2019-03-08T03:16:59.320Z,100.00
2019-03-08T03:19:47.509Z,100.00
2019-03-08T03:22:35.868Z,100.00
2019-03-08T03:25:24.287Z,100.00
2019-03-08T03:28:12.962Z,100.00
2019-03-08T03:31:01.079Z,100.00
2019-03-08T03:33:48.732Z,100.00
2019-03-08T03:36:37.197Z,100.00
2019-03-08T03:39:24.969Z,100.00
2019-03-08T03:42:12.823Z,100.00
2019-03-08T03:45:00.948Z,100.00
2019-03-08T03:47:49.031Z,100.00
2019-03-08T03:50:37.684Z,100.00
2019-03-08T03:53:25.703Z,100.00
2019-03-08T03:56:14.050Z,100.00
2019-03-08T03:59:02.463Z,100.00
2019-03-08T04:01:51.067Z,100.00
2019-03-08T04:04:39.421Z,100.00
2019-03-08T04:07:27.083Z,100.00
2019-03-08T04:10:15.202Z,100.00
2019-03-08T04:13:02.802Z,100.00
2019-03-08T04:15:51.688Z,100.00
2019-03-08T04:18:39.395Z,100.00
2019-03-08T04:21:27.116Z,100.00
2019-03-08T04:24:15.036Z,100.00
2019-03-08T04:27:03.634Z,100.00
2019-03-08T04:29:51.952Z,100.00
2019-03-08T04:32:40.550Z,100.00
2019-03-08T04:35:28.616Z,100.00
2019-03-08T04:38:16.989Z,100.00
2019-03-08T04:41:05.450Z,100.00
2019-03-08T04:43:53.236Z,100.00
2019-03-08T04:46:41.679Z,100.00
2019-03-08T04:49:30.160Z,100.00
2019-03-08T04:52:18.030Z,100.00
2019-03-08T04:55:07.243Z,100.00
2019-03-08T04:57:55.685Z,100.00
2019-03-08T05:00:44.146Z,100.00
2019-03-08T05:03:32.503Z,100.00
2019-03-08T05:06:21.011Z,100.00
2019-03-08T05:09:10.008Z,100.00
2019-03-08T05:11:58.321Z,100.00
2019-03-08T05:14:45.992Z,100.00
2019-03-08T05:17:34.187Z,100.00
2019-03-08T05:20:22.568Z,100.00
2019-03-08T05:23:10.959Z,100.00
2019-03-08T05:25:59.355Z,100.00
2019-03-08T05:28:50.228Z,100.00
2019-03-08T05:31:38.698Z,100.00
2019-03-08T05:34:27.189Z,100.00
2019-03-08T05:37:18.778Z,100.00
2019-03-08T05:40:10.385Z,100.00
2019-03-08T05:42:57.804Z,100.00
2019-03-08T05:45:46.233Z,100.00
2019-03-08T05:48:34.068Z,100.00
2019-03-08T05:51:22.550Z,100.00
2019-03-08T05:54:10.754Z,100.00
2019-03-08T05:56:59.236Z,100.00
2019-03-08T05:59:47.628Z,100.00
2019-03-08T06:02:35.986Z,100.00
2019-03-08T06:05:24.308Z,100.00
2019-03-08T06:08:12.514Z,100.00
2019-03-08T06:11:00.510Z,100.00
2019-03-08T06:13:49.111Z,99.99
2019-03-08T06:16:37.086Z,100.00
2019-03-08T06:19:25.096Z,100.00
2019-03-08T06:22:13.427Z,100.00
2019-03-08T06:25:01.500Z,100.00
2019-03-08T06:27:49.575Z,100.00
2019-03-08T06:30:37.604Z,100.00
2019-03-08T06:33:25.624Z,100.00
2019-03-08T06:36:14.170Z,100.00
2019-03-08T06:39:02.428Z,97.24
2019-03-08T06:41:50.887Z,95.78
2019-03-08T06:44:39.408Z,94.50
2019-03-08T06:47:28.041Z,94.67
2019-03-08T06:50:16.637Z,96.30
2019-03-08T06:53:04.319Z,95.47
2019-03-08T06:55:51.976Z,92.65
2019-03-08T06:58:58.959Z,91.00
2019-03-08T07:01:46.456Z,90.00
2019-03-08T07:04:34.228Z,89.72
2019-03-08T07:07:21.895Z,88.85
2019-03-08T07:10:10.332Z,87.55
2019-03-08T07:13:03.369Z,88.03
2019-03-08T07:15:48.446Z,85.75
2019-03-08T07:18:36.557Z,84.42
2019-03-08T07:21:33.645Z,84.66
2019-03-08T07:24:29.443Z,83.45
2019-03-08T07:27:35.008Z,81.61
2019-03-08T07:31:00.090Z,80.40
2019-03-08T07:34:07.015Z,80.26
2019-03-08T07:37:11.946Z,80.87
2019-03-08T07:40:17.031Z,82.75
2019-03-08T07:43:39.456Z,82.10
2019-03-08T07:46:49.959Z,80.62
2019-03-08T07:49:47.248Z,80.38
2019-03-08T07:52:51.759Z,79.14
2019-03-08T07:55:47.395Z,78.89
2019-03-08T07:59:00.726Z,79.80
2019-03-08T08:02:06.187Z,80.67
2019-03-08T08:05:07.164Z,81.35
2019-03-08T08:08:09.295Z,80.20
2019-03-08T08:11:19.440Z,78.62
2019-03-08T08:14:28.919Z,77.19
2019-03-08T08:17:35.950Z,76.56
2019-03-08T08:20:45.497Z,77.62
2019-03-08T08:23:50.588Z,76.97
2019-03-08T08:26:57.170Z,76.06
2019-03-08T08:29:53.904Z,75.24
2019-03-08T08:33:06.890Z,74.41
2019-03-08T08:36:16.328Z,73.49
2019-03-08T08:39:30.702Z,74.66
2019-03-08T08:42:40.133Z,72.76
2019-03-08T08:45:37.640Z,72.37
2019-03-08T08:48:44.655Z,71.46
2019-03-08T08:51:50.537Z,71.46
2019-03-08T08:54:47.589Z,71.07
2019-03-08T08:57:55.656Z,70.50
2019-03-08T09:01:08.819Z,70.95
2019-03-08T09:04:18.831Z,69.38
2019-03-08T09:07:22.227Z,67.69
2019-03-08T09:10:29.345Z,67.51
2019-03-08T09:13:42.879Z,66.56
2019-03-08T09:16:49.514Z,65.46
2019-03-08T09:19:56.010Z,65.26
2019-03-08T09:22:54.810Z,65.66
2019-03-08T09:26:10.600Z,67.62
2019-03-08T09:29:17.773Z,67.75
2019-03-08T09:32:30.564Z,66.46
2019-03-08T09:35:32.473Z,65.42
2019-03-08T09:38:54.827Z,65.54
2019-03-08T09:42:02.233Z,64.60
2019-03-08T09:45:09.115Z,63.41
2019-03-08T09:48:14.857Z,63.16
2019-03-08T09:51:16.463Z,62.44
2019-03-08T09:54:24.211Z,62.40
2019-03-08T09:57:19.166Z,62.39
2019-03-08T10:00:26.267Z,62.16
2019-03-08T10:03:23.369Z,62.01
2019-03-08T10:06:34.047Z,59.24
2019-03-08T10:09:33.596Z,58.42
2019-03-08T10:12:32.143Z,58.41
2019-03-08T10:15:34.402Z,58.38
2019-03-08T10:18:44.098Z,57.48
2019-03-08T10:21:53.797Z,57.30
2019-03-08T10:25:00.375Z,56.00
2019-03-08T10:28:07.436Z,56.15
2019-03-08T10:31:31.983Z,55.63
2019-03-08T10:34:37.438Z,55.06
2019-03-08T10:37:43.783Z,55.73
2019-03-08T10:40:49.156Z,53.11
2019-03-08T10:44:08.641Z,52.69
2019-03-08T10:47:00.801Z,52.25
2019-03-08T10:50:07.559Z,52.36
2019-03-08T10:53:24.236Z,50.75
2019-03-08T10:56:30.845Z,50.17
2019-03-08T10:59:28.691Z,50.22
2019-03-08T11:02:35.712Z,49.59
2019-03-08T11:05:40.620Z,48.53
2019-03-08T11:08:53.093Z,48.39
2019-03-08T11:11:58.538Z,47.46
2019-03-08T11:14:57.910Z,47.54
2019-03-08T11:18:03.605Z,45.94
2019-03-08T11:21:18.639Z,46.41
2019-03-08T11:24:25.359Z,47.23
2019-03-08T11:27:31.106Z,45.59
2019-03-08T11:30:35.944Z,43.24
2019-03-08T11:33:41.562Z,42.27
2019-03-08T11:36:40.715Z,43.32
2019-03-08T11:39:43.401Z,42.98
2019-03-08T11:42:50.776Z,44.32
2019-03-08T11:45:43.899Z,43.89
2019-03-08T11:48:46.727Z,44.65
2019-03-08T11:51:55.431Z,43.35
2019-03-08T11:55:01.275Z,43.45
2019-03-08T11:58:07.459Z,42.76
2019-03-08T12:01:15.079Z,41.28
2019-03-08T12:04:31.048Z,41.59
2019-03-08T12:07:25.579Z,41.89
2019-03-08T12:10:21.671Z,40.70
2019-03-08T12:13:28.901Z,40.60
2019-03-08T12:16:44.567Z,41.06
2019-03-08T12:19:54.088Z,39.79
2019-03-08T12:23:03.811Z,39.26
2019-03-08T12:26:13.544Z,39.83
2019-03-08T12:29:12.288Z,40.11
2019-03-08T12:32:17.137Z,38.98
2019-03-08T12:35:30.176Z,38.86
2019-03-08T12:38:35.822Z,38.67
2019-03-08T12:41:31.110Z,38.00
2019-03-08T12:44:44.176Z,38.75
2019-03-08T12:47:47.440Z,38.92
2019-03-08T12:50:47.862Z,39.25
2019-03-08T12:54:10.248Z,39.79
2019-03-08T12:57:25.756Z,40.71
2019-03-08T13:00:32.836Z,39.51
2019-03-08T13:03:45.451Z,40.50
2019-03-08T13:06:40.309Z,41.13
2019-03-08T13:09:33.228Z,40.71
2019-03-08T13:12:02.966Z,40.24
2019-03-08T13:14:32.708Z,39.19
2019-03-08T13:17:02.489Z,41.03
2019-03-08T13:19:32.232Z,40.30
2019-03-08T13:22:01.972Z,41.09
2019-03-08T13:24:31.755Z,41.05
2019-03-08T13:27:01.506Z,40.57
2019-03-08T13:29:31.260Z,41.35
2019-03-08T13:32:01.108Z,40.27
2019-03-08T13:34:31.361Z,41.16
2019-03-08T13:37:01.105Z,42.54
2019-03-08T13:39:30.932Z,42.77
2019-03-08T13:42:00.660Z,42.84
2019-03-08T13:44:30.395Z,41.35
2019-03-08T13:47:00.179Z,41.51
2019-03-08T13:49:29.923Z,41.88
2019-03-08T13:51:59.682Z,41.26
2019-03-08T13:54:29.493Z,40.99
2019-03-08T13:57:00.840Z,41.57
2019-03-08T13:59:30.619Z,40.74
2019-03-08T14:02:01.693Z,38.83
2019-03-08T14:04:32.541Z,38.96
2019-03-08T14:07:03.389Z,38.88
2019-03-08T14:09:34.322Z,38.18
2019-03-08T14:12:05.175Z,37.17
2019-03-08T14:14:36.063Z,37.16
2019-03-08T14:17:07.053Z,36.70
2019-03-08T14:19:37.916Z,35.70
2019-03-08T14:22:08.777Z,35.98
2019-03-08T14:24:39.810Z,36.09
2019-03-08T14:27:11.788Z,37.93
2019-03-08T14:29:42.650Z,37.98
2019-03-08T14:32:21.176Z,38.24
2019-03-08T14:34:53.585Z,38.28
2019-03-08T14:37:23.779Z,38.92
2019-03-08T14:39:55.238Z,37.86
2019-03-08T14:42:47.820Z,39.22
2019-03-08T14:45:26.384Z,39.97
2019-03-08T14:47:59.117Z,41.19
2019-03-08T14:50:31.929Z,40.81
2019-03-08T14:53:02.573Z,41.25
2019-03-08T14:55:33.718Z,41.74
2019-03-08T14:58:04.863Z,42.64
2019-03-08T15:00:35.739Z,42.99
2019-03-08T15:03:08.652Z,43.37
2019-03-08T15:05:39.509Z,44.21
2019-03-08T15:08:13.564Z,44.61
2019-03-08T15:10:43.491Z,44.72
2019-03-08T15:13:15.508Z,44.74
2019-03-08T15:15:46.551Z,45.22
2019-03-08T15:18:18.184Z,45.86
2019-03-08T15:20:49.032Z,46.53
2019-03-08T15:23:19.903Z,46.99
2019-03-08T15:25:50.807Z,47.68
2019-03-08T15:28:22.666Z,47.70
2019-03-08T15:30:52.509Z,48.36
2019-03-08T15:33:23.661Z,47.16
2019-03-08T15:35:53.509Z,47.38
2019-03-08T15:38:24.556Z,47.64
2019-03-08T15:40:55.601Z,47.59
2019-03-08T15:43:26.598Z,47.64
2019-03-08T15:45:58.059Z,49.03
2019-03-08T15:48:29.024Z,49.55
2019-03-08T15:51:00.178Z,49.73
2019-03-08T15:53:31.501Z,50.39
2019-03-08T15:56:02.460Z,51.15
2019-03-08T15:58:33.331Z,51.10
2019-03-08T16:01:04.793Z,51.50
2019-03-08T16:03:35.808Z,52.01
2019-03-08T16:06:07.540Z,52.83
2019-03-08T16:08:39.761Z,53.87
2019-03-08T16:11:10.370Z,53.74
2019-03-08T16:13:41.412Z,54.00
2019-03-08T16:16:12.419Z,54.43
2019-03-08T16:18:44.092Z,54.51
2019-03-08T16:21:15.933Z,55.32
2019-03-08T16:23:46.797Z,56.43
2019-03-08T16:26:21.345Z,56.37
2019-03-08T16:28:51.387Z,54.89
2019-03-08T16:31:40.941Z,56.54
2019-03-08T16:34:11.630Z,56.42
2019-03-08T16:37:10.266Z,55.83
2019-03-08T16:39:58.166Z,57.05
2019-03-08T16:42:50.814Z,56.64
2019-03-08T16:45:54.914Z,55.66
2019-03-08T16:48:35.964Z,55.07
2019-03-08T16:51:16.226Z,54.91
2019-03-08T16:53:55.789Z,55.24
2019-03-08T16:56:44.390Z,54.73
2019-03-08T16:59:33.080Z,54.89
2019-03-08T17:02:19.330Z,55.25
2019-03-08T17:05:00.393Z,56.95
2019-03-08T17:07:46.952Z,56.00
2019-03-08T17:10:42.881Z,55.03
2019-03-08T17:13:23.985Z,54.58
2019-03-08T17:16:06.028Z,55.16
2019-03-08T17:19:11.977Z,55.61
2019-03-08T17:22:02.423Z,59.50
2019-03-08T17:24:42.690Z,59.56
2019-03-08T17:27:20.406Z,61.00
2019-03-08T17:30:29.433Z,61.78
2019-03-08T17:33:25.209Z,62.53
2019-03-08T17:36:08.237Z,62.68
2019-03-08T17:38:55.862Z,61.82
2019-03-08T17:41:52.992Z,64.20
2019-03-08T17:44:45.787Z,64.15
2019-03-08T17:47:23.914Z,62.75
2019-03-08T17:50:18.038Z,60.47
2019-03-08T17:53:10.135Z,63.20
2019-03-08T17:55:52.285Z,63.01
2019-03-08T17:58:40.884Z,63.83
2019-03-08T18:01:18.120Z,59.62
2019-03-08T18:04:23.212Z,63.81
2019-03-08T18:07:00.974Z,66.25
2019-03-08T18:09:36.763Z,66.15
2019-03-08T18:12:41.846Z,66.87
2019-03-08T18:15:19.617Z,67.62
2019-03-08T18:18:24.393Z,69.49
2019-03-08T18:21:12.883Z,69.02
2019-03-08T18:24:01.240Z,69.79
2019-03-08T18:27:05.986Z,69.94
2019-03-08T18:29:54.857Z,69.37
2019-03-08T18:32:46.060Z,69.78
2019-03-08T18:35:42.089Z,69.85
2019-03-08T18:38:30.408Z,70.06
2019-03-08T18:41:32.147Z,70.74
2019-03-08T18:44:27.741Z,70.53
2019-03-08T18:47:10.933Z,71.02
2019-03-08T18:49:55.608Z,70.94
2019-03-08T18:52:57.623Z,73.30
2019-03-08T18:55:45.935Z,72.94
2019-03-08T18:58:29.710Z,72.67
2019-03-08T19:01:17.981Z,73.52
2019-03-08T19:04:13.638Z,73.12
2019-03-08T19:07:01.986Z,73.97
2019-03-08T19:09:46.939Z,75.29
2019-03-08T19:12:30.894Z,74.20
2019-03-08T19:15:35.995Z,74.70
2019-03-08T19:18:28.521Z,75.47
2019-03-08T19:21:16.019Z,75.77
2019-03-08T19:24:11.805Z,75.51
2019-03-08T19:27:13.616Z,74.65
2019-03-08T19:29:53.628Z,77.13
2019-03-08T19:32:47.342Z,77.42
2019-03-08T19:35:29.232Z,76.94
2019-03-08T19:38:28.361Z,76.71
2019-03-08T19:41:20.683Z,75.39
2019-03-08T19:44:22.802Z,77.07
2019-03-08T19:47:11.231Z,78.27
2019-03-08T19:50:10.320Z,79.47
2019-03-08T19:53:00.801Z,79.05
2019-03-08T19:55:50.687Z,79.63
2019-03-08T19:58:46.566Z,79.31
2019-03-08T20:01:28.233Z,79.34
2019-03-08T20:04:16.590Z,79.44
2019-03-08T20:07:05.140Z,78.78
2019-03-08T20:09:49.866Z,77.18
2019-03-08T20:12:29.777Z,77.84
2019-03-08T20:15:28.739Z,78.00
2019-03-08T20:18:15.412Z,79.30
2019-03-08T20:21:07.963Z,79.58
2019-03-08T20:23:56.242Z,80.24
2019-03-08T20:26:48.999Z,82.75
2019-03-08T20:29:50.835Z,86.09
2019-03-08T20:32:49.603Z,86.15
2019-03-08T20:35:31.255Z,85.90
2019-03-08T20:38:36.334Z,85.28
2019-03-08T20:41:34.826Z,85.64
2019-03-08T20:44:24.806Z,84.38
2019-03-08T20:46:59.771Z,84.78
2019-03-08T20:49:30.786Z,83.84
2019-03-08T20:52:02.713Z,84.97
2019-03-08T20:54:36.803Z,84.92
2019-03-08T20:57:11.234Z,84.66
2019-03-08T21:00:00.743Z,84.64
2019-03-08T21:02:50.324Z,84.11
2019-03-08T21:05:39.733Z,85.23
2019-03-08T21:08:29.152Z,84.84
2019-03-08T21:11:18.488Z,83.35
2019-03-08T21:14:08.049Z,84.03
2019-03-08T21:16:59.427Z,82.66
2019-03-08T21:19:49.465Z,83.65
2019-03-08T21:22:39.376Z,86.00
2019-03-08T21:25:28.917Z,86.26
2019-03-08T21:28:18.273Z,85.91
2019-03-08T21:31:07.382Z,84.96
2019-03-08T21:33:57.007Z,85.77
2019-03-08T21:36:47.540Z,86.82
2019-03-08T21:39:37.229Z,88.40
2019-03-08T21:42:31.887Z,89.22
2019-03-08T21:45:21.186Z,91.78
2019-03-08T21:48:10.627Z,94.59
2019-03-08T21:51:00.180Z,94.10
2019-03-08T21:53:50.020Z,90.44
2019-03-08T21:56:40.959Z,88.28
2019-03-08T21:59:28.941Z,88.34
2019-03-08T22:02:18.133Z,89.57
2019-03-08T22:05:06.392Z,90.23
2019-03-08T22:07:55.106Z,89.15
2019-03-08T22:10:56.686Z,89.16
2019-03-08T22:13:44.383Z,90.53
2019-03-08T22:16:35.657Z,91.65
2019-03-08T22:19:23.704Z,90.94
2019-03-08T22:22:11.980Z,92.02
2019-03-08T22:25:00.387Z,92.25
2019-03-08T22:27:48.738Z,92.64
2019-03-08T22:30:37.150Z,92.42
2019-03-08T22:33:25.464Z,92.06
2019-03-08T22:36:13.512Z,91.23
2019-03-08T22:39:02.781Z,90.76
2019-03-08T22:41:51.054Z,91.04
2019-03-08T22:44:39.514Z,93.44
2019-03-08T22:47:27.994Z,93.47
2019-03-08T22:50:15.899Z,93.77
2019-03-08T22:53:04.082Z,92.78
2019-03-08T22:55:51.764Z,94.68
2019-03-08T22:58:39.616Z,97.06
2019-03-08T23:01:38.537Z,96.28
2019-03-08T23:04:26.594Z,97.30
2019-03-08T23:07:18.054Z,99.52
2019-03-08T23:10:06.412Z,100.00
2019-03-08T23:12:54.382Z,99.28
2019-03-08T23:15:42.635Z,97.75
2019-03-08T23:18:31.051Z,96.73
2019-03-08T23:21:19.599Z,95.81
2019-03-08T23:24:07.947Z,95.67
2019-03-08T23:27:14.187Z,95.58
2019-03-08T23:30:06.595Z,94.91
2019-03-08T23:32:55.769Z,94.79
2019-03-08T23:35:43.675Z,95.55
2019-03-08T23:38:31.604Z,96.14
2019-03-08T23:41:19.903Z,96.06
2019-03-08T23:44:07.799Z,96.51
2019-03-08T23:46:55.953Z,97.17
2019-03-08T23:49:44.648Z,97.59
2019-03-08T23:52:33.122Z,95.95
2019-03-08T23:55:20.695Z,93.50
2019-03-08T23:58:08.833Z,91.45
